createdAt,value
2019-04-26T00:02:48.465Z,80.60
2019-04-26T00:05:18.511Z,80.30
2019-04-26T00:07:46.376Z,80.50
2019-04-26T00:10:34.013Z,80.40
2019-04-26T00:13:09.861Z,80.60
2019-04-26T00:15:54.386Z,80.70
2019-04-26T00:18:22.261Z,81.20
2019-04-26T00:20:50.123Z,81.30
2019-04-26T00:23:18.276Z,81.30
2019-04-26T00:25:46.319Z,82.30
2019-04-26T00:28:14.637Z,82.20
2019-04-26T00:30:42.558Z,82.20
2019-04-26T00:33:11.025Z,82.80
2019-04-26T00:35:47.429Z,83.00
2019-04-26T00:38:09.815Z,83.00
2019-04-26T00:40:37.910Z,82.70
2019-04-26T00:43:06.290Z,82.10
2019-04-26T00:45:35.557Z,82.10
2019-04-26T00:48:04.047Z,82.50
2019-04-26T00:50:32.917Z,82.50
2019-04-26T00:53:02.125Z,82.70
2019-04-26T00:55:31.103Z,82.90
2019-04-26T00:58:00.009Z,83.00
2019-04-26T01:00:27.858Z,82.90
2019-04-26T01:02:56.311Z,83.30
2019-04-26T01:05:25.146Z,83.70
2019-04-26T01:07:55.021Z,83.50
2019-04-26T01:10:23.744Z,83.90
2019-04-26T01:12:51.645Z,84.20
2019-04-26T01:15:20.427Z,84.40
2019-04-26T01:17:49.206Z,84.10
2019-04-26T01:20:20.354Z,84.10
2019-04-26T01:22:51.855Z,83.80
2019-04-26T01:26:00.863Z,83.80
2019-04-26T01:28:39.994Z,84.20
2019-04-26T01:31:08.380Z,84.80
2019-04-26T01:33:37.838Z,85.20
2019-04-26T01:36:13.119Z,85.20
2019-04-26T01:38:36.748Z,85.30
2019-04-26T01:41:09.629Z,85.40
2019-04-26T01:44:00.949Z,85.30
2019-04-26T01:46:36.224Z,85.50
2019-04-26T01:49:08.080Z,85.90
2019-04-26T01:51:45.389Z,86.70
2019-04-26T01:54:17.085Z,86.80
2019-04-26T01:56:45.898Z,87.40
2019-04-26T01:59:16.218Z,87.30
2019-04-26T02:02:02.086Z,87.30
2019-04-26T02:04:32.254Z,87.80
2019-04-26T02:07:03.897Z,88.00
2019-04-26T02:09:32.668Z,87.80
2019-04-26T02:12:02.056Z,88.20
2019-04-26T02:14:31.031Z,88.70
2019-04-26T02:17:01.397Z,88.60
2019-04-26T02:19:30.076Z,88.30
2019-04-26T02:22:06.913Z,88.20
2019-04-26T02:24:37.833Z,88.40
2019-04-26T02:27:13.105Z,88.20
2019-04-26T02:29:41.051Z,88.10
2019-04-26T02:32:09.270Z,88.10
2019-04-26T02:34:38.316Z,88.20
2019-04-26T02:37:09.563Z,88.40
2019-04-26T02:39:39.956Z,88.40
2019-04-26T02:42:19.665Z,89.00
2019-04-26T02:44:59.922Z,89.30
2019-04-26T02:48:09.543Z,89.60
2019-04-26T02:50:44.682Z,89.80
2019-04-26T02:53:36.557Z,90.00
2019-04-26T02:56:17.253Z,90.10
2019-04-26T02:59:08.180Z,91.40
2019-04-26T03:01:38.746Z,90.60
2019-04-26T03:04:07.554Z,89.90
2019-04-26T03:06:39.130Z,89.30
2019-04-26T03:09:07.561Z,89.70
2019-04-26T03:11:39.478Z,89.70
2019-04-26T03:14:42.045Z,90.00
2019-04-26T03:17:20.364Z,90.40
2019-04-26T03:19:55.294Z,90.50
2019-04-26T03:22:49.474Z,90.30
2019-04-26T03:25:56.274Z,90.40
2019-04-26T03:28:46.460Z,90.50
2019-04-26T03:31:49.665Z,91.20
2019-04-26T03:34:20.225Z,91.30
2019-04-26T03:37:37.890Z,91.10
2019-04-26T03:40:26.735Z,90.60
2019-04-26T03:43:26.170Z,90.50
2019-04-26T03:46:23.292Z,90.80
2019-04-26T03:49:13.325Z,91.20
2019-04-26T03:51:59.874Z,90.80
2019-04-26T03:54:31.165Z,91.00
2019-04-26T03:57:18.904Z,90.90
2019-04-26T04:00:21.110Z,90.60
2019-04-26T04:03:27.250Z,90.80
2019-04-26T04:05:57.792Z,90.70
2019-04-26T04:08:42.280Z,90.50
2019-04-26T04:11:13.622Z,90.50
2019-04-26T04:13:51.405Z,90.30
2019-04-26T04:16:49.795Z,90.10
2019-04-26T04:20:04.326Z,89.90
2019-04-26T04:22:37.933Z,89.70
2019-04-26T04:25:11.627Z,88.20
2019-04-26T04:27:49.437Z,88.40
2019-04-26T04:30:52.672Z,86.50
2019-04-26T04:33:55.537Z,84.40
2019-04-26T04:36:33.435Z,82.40
2019-04-26T04:39:13.095Z,80.60
2019-04-26T04:42:20.584Z,79.70
2019-04-26T04:45:13.057Z,78.30
2019-04-26T04:48:15.733Z,76.70
2019-04-26T04:50:52.514Z,75.90
2019-04-26T04:53:45.091Z,75.20
2019-04-26T04:56:39.696Z,74.60
2019-04-26T04:59:11.497Z,73.60
2019-04-26T05:02:07.209Z,73.50
2019-04-26T05:04:44.309Z,72.90
2019-04-26T05:07:33.127Z,72.30
2019-04-26T05:10:15.861Z,72.00
2019-04-26T05:13:15.829Z,72.10
2019-04-26T05:16:21.480Z,71.80
2019-04-26T05:19:28.109Z,71.80
2019-04-26T05:22:49.078Z,70.10
2019-04-26T05:26:10.950Z,69.50
2019-04-26T05:28:57.985Z,69.00
2019-04-26T05:31:45.878Z,68.70
2019-04-26T05:34:24.842Z,67.50
2019-04-26T05:37:40.615Z,67.40
2019-04-26T05:40:40.521Z,67.00
2019-04-26T05:43:47.448Z,66.10
2019-04-26T05:47:07.269Z,65.90
2019-04-26T05:50:27.564Z,65.40
2019-04-26T05:53:48.709Z,65.20
2019-04-26T05:56:38.785Z,65.20
2019-04-26T05:59:12.428Z,64.90
2019-04-26T06:02:29.202Z,65.00
2019-04-26T06:05:39.748Z,64.60
2019-04-26T06:09:17.730Z,64.10
2019-04-26T06:11:57.215Z,63.90
2019-04-26T06:15:04.695Z,63.50
2019-04-26T06:18:22.680Z,63.30
2019-04-26T06:20:59.793Z,63.20
2019-04-26T06:24:03.334Z,62.80
2019-04-26T06:27:24.884Z,62.90
2019-04-26T06:30:10.507Z,62.60
2019-04-26T06:33:17.083Z,61.60
2019-04-26T06:35:47.748Z,61.00
2019-04-26T06:38:57.781Z,60.80
2019-04-26T06:42:06.358Z,60.70
2019-04-26T06:45:39.774Z,60.70
2019-04-26T06:48:29.845Z,60.60
2019-04-26T06:51:06.945Z,60.00
2019-04-26T06:53:59.038Z,60.10
2019-04-26T06:57:28.529Z,59.90
2019-04-26T07:00:07.178Z,59.50
2019-04-26T07:02:57.509Z,59.10
2019-04-26T07:05:29.294Z,59.50
2019-04-26T07:08:30.631Z,58.70
2019-04-26T07:12:11.697Z,59.00
2019-04-26T07:15:07.975Z,59.10
2019-04-26T07:18:04.482Z,58.50
2019-04-26T07:20:54.019Z,57.90
2019-04-26T07:24:03.942Z,57.70
2019-04-26T07:27:25.619Z,57.40
2019-04-26T07:30:21.873Z,57.60
2019-04-26T07:33:41.416Z,57.60
2019-04-26T07:36:47.967Z,57.40
2019-04-26T07:40:29.943Z,57.20
2019-04-26T07:43:21.565Z,56.00
2019-04-26T07:46:23.993Z,55.10
2019-04-26T07:49:36.266Z,55.20
2019-04-26T07:52:35.738Z,55.00
2019-04-26T07:55:47.791Z,54.90
2019-04-26T07:59:09.259Z,54.50
2019-04-26T08:02:18.014Z,54.50
2019-04-26T08:04:52.167Z,54.70
2019-04-26T08:07:24.183Z,53.50
2019-04-26T08:10:07.852Z,53.90
2019-04-26T08:12:39.426Z,53.60
2019-04-26T08:15:51.378Z,52.70
2019-04-26T08:18:44.192Z,53.20
2019-04-26T08:21:37.622Z,52.90
2019-04-26T08:24:28.116Z,52.60
2019-04-26T08:27:18.673Z,52.60
2019-04-26T08:29:43.364Z,52.30
2019-04-26T08:32:20.456Z,51.80
2019-04-26T08:34:57.305Z,52.30
2019-04-26T08:37:40.121Z,50.80
2019-04-26T08:40:08.494Z,50.90
2019-04-26T08:42:43.248Z,50.40
2019-04-26T08:45:31.832Z,50.00
2019-04-26T08:48:35.446Z,49.90
2019-04-26T08:51:09.307Z,50.20
2019-04-26T08:53:40.065Z,50.00
2019-04-26T08:56:11.606Z,50.10
2019-04-26T08:58:42.883Z,49.20
2019-04-26T09:01:33.600Z,48.90
2019-04-26T09:04:07.661Z,49.20
2019-04-26T09:06:47.469Z,48.90
2019-04-26T09:09:21.340Z,47.90
2019-04-26T09:11:59.588Z,48.20
2019-04-26T09:14:23.800Z,47.50
2019-04-26T09:16:51.801Z,47.70
2019-04-26T09:19:19.338Z,47.60
2019-04-26T09:21:53.703Z,48.30
2019-04-26T09:24:33.264Z,47.60
2019-04-26T09:27:17.187Z,47.30
2019-04-26T09:30:12.934Z,47.10
2019-04-26T09:32:53.731Z,47.80
2019-04-26T09:35:21.453Z,48.00
2019-04-26T09:37:49.346Z,46.60
2019-04-26T09:40:21.602Z,46.40
2019-04-26T09:43:23.901Z,46.70
2019-04-26T09:46:14.191Z,46.10
2019-04-26T09:48:48.434Z,46.80
2019-04-26T09:51:16.056Z,45.60
2019-04-26T09:53:44.751Z,45.70
2019-04-26T09:56:12.421Z,44.90
2019-04-26T09:58:40.250Z,44.70
2019-04-26T10:01:08.293Z,44.70
2019-04-26T10:03:35.987Z,44.20
2019-04-26T10:06:03.920Z,44.10
2019-04-26T10:08:31.840Z,44.00
2019-04-26T10:10:59.647Z,43.30
2019-04-26T10:13:36.637Z,42.30
2019-04-26T10:16:37.656Z,42.40
2019-04-26T10:19:11.436Z,43.60
2019-04-26T10:21:39.110Z,42.20
2019-04-26T10:24:08.476Z,41.90
2019-04-26T10:26:36.320Z,42.60
2019-04-26T10:29:04.354Z,41.90
2019-04-26T10:31:32.050Z,41.00
2019-04-26T10:33:59.598Z,40.80
2019-04-26T10:36:32.972Z,41.70
2019-04-26T10:39:04.397Z,42.30
2019-04-26T10:41:34.973Z,41.70
2019-04-26T10:44:05.499Z,41.40
2019-04-26T10:46:33.832Z,40.00
2019-04-26T10:49:24.724Z,39.00
2019-04-26T10:51:59.410Z,38.10
2019-04-26T10:54:27.258Z,36.30
2019-04-26T10:57:07.508Z,37.70
2019-04-26T10:59:49.209Z,37.20
2019-04-26T11:02:19.636Z,37.20
2019-04-26T11:04:50.260Z,37.00
2019-04-26T11:07:17.924Z,36.90
2019-04-26T11:09:47.002Z,37.10
2019-04-26T11:12:15.719Z,37.20
2019-04-26T11:14:44.218Z,36.90
2019-04-26T11:17:18.170Z,37.70
2019-04-26T11:19:45.773Z,37.60
2019-04-26T11:22:28.581Z,37.30
2019-04-26T11:24:46.388Z,36.80
2019-04-26T11:27:16.920Z,36.50
2019-04-26T11:29:53.593Z,37.10
2019-04-26T11:32:15.014Z,36.60
2019-04-26T11:34:43.733Z,36.20
2019-04-26T11:37:13.435Z,36.20
2019-04-26T11:39:42.129Z,35.50
2019-04-26T11:42:11.716Z,36.50
2019-04-26T11:44:40.645Z,36.70
2019-04-26T11:47:11.293Z,35.40
2019-04-26T11:49:41.563Z,33.50
2019-04-26T11:52:12.404Z,33.00
2019-04-26T11:54:40.049Z,33.20
2019-04-26T11:57:11.986Z,33.20
2019-04-26T11:59:38.881Z,33.90
2019-04-26T12:02:06.884Z,33.10
2019-04-26T12:04:55.096Z,32.80
2019-04-26T12:07:28.888Z,32.80
2019-04-26T12:09:58.356Z,32.80
2019-04-26T12:12:26.144Z,33.10
2019-04-26T12:14:54.243Z,32.80
2019-04-26T12:17:21.936Z,32.30
2019-04-26T12:19:52.249Z,31.90
2019-04-26T12:22:19.470Z,32.30
2019-04-26T12:24:49.311Z,32.60
2019-04-26T12:27:19.437Z,32.60
2019-04-26T12:29:48.165Z,32.30
2019-04-26T12:32:18.631Z,32.20
2019-04-26T12:34:54.517Z,32.40
2019-04-26T12:37:23.108Z,32.50
2019-04-26T12:39:57.137Z,32.20
2019-04-26T12:42:24.979Z,32.70
2019-04-26T12:45:18.385Z,32.80
2019-04-26T12:47:52.241Z,32.80
2019-04-26T12:50:20.902Z,32.20
2019-04-26T12:52:51.535Z,32.50
2019-04-26T12:55:23.752Z,32.40
2019-04-26T12:57:51.605Z,32.80
2019-04-26T13:00:28.404Z,32.80
2019-04-26T13:02:56.691Z,32.20
2019-04-26T13:05:33.546Z,31.80
2019-04-26T13:08:02.510Z,32.30
2019-04-26T13:10:50.689Z,33.10
2019-04-26T13:13:43.052Z,32.60
2019-04-26T13:16:21.638Z,32.70
2019-04-26T13:18:52.745Z,33.00
2019-04-26T13:21:20.482Z,33.30
2019-04-26T13:23:48.407Z,33.50
2019-04-26T13:26:16.147Z,33.10
2019-04-26T13:28:44.005Z,33.10
2019-04-26T13:31:11.880Z,33.30
2019-04-26T13:33:39.998Z,32.90
2019-04-26T13:36:08.752Z,32.60
2019-04-26T13:38:39.282Z,32.30
2019-04-26T13:41:38.697Z,32.60
2019-04-26T13:44:06.190Z,33.10
2019-04-26T13:46:55.916Z,32.80
2019-04-26T13:49:36.889Z,32.00
2019-04-26T13:52:04.759Z,32.50
2019-04-26T13:54:32.542Z,32.70
2019-04-26T13:57:00.526Z,33.40
2019-04-26T13:59:31.711Z,33.20
2019-04-26T14:02:10.641Z,32.90
2019-04-26T14:04:30.517Z,33.20
2019-04-26T14:06:59.683Z,33.10
2019-04-26T14:09:30.183Z,32.90
2019-04-26T14:11:58.024Z,33.00
2019-04-26T14:14:30.259Z,33.40
2019-04-26T14:16:57.218Z,33.10
2019-04-26T14:19:25.005Z,33.00
2019-04-26T14:21:55.493Z,33.70
2019-04-26T14:24:53.126Z,34.00
2019-04-26T14:27:25.134Z,33.60
2019-04-26T14:29:54.825Z,33.70
2019-04-26T14:32:28.060Z,33.10
2019-04-26T14:34:55.896Z,32.70
2019-04-26T14:37:23.630Z,32.60
2019-04-26T14:39:55.400Z,32.90
2019-04-26T14:42:33.079Z,33.00
2019-04-26T14:44:50.710Z,33.20
2019-04-26T14:47:18.563Z,33.90
2019-04-26T14:49:46.189Z,33.20
2019-04-26T14:52:13.925Z,33.50
2019-04-26T14:54:45.951Z,33.40
2019-04-26T14:57:19.940Z,34.10
2019-04-26T14:59:48.103Z,34.20
2019-04-26T15:02:43.319Z,34.20
2019-04-26T15:05:22.119Z,34.00
2019-04-26T15:07:52.009Z,33.60
2019-04-26T15:10:20.931Z,33.50
2019-04-26T15:12:52.862Z,33.50
2019-04-26T15:15:18.929Z,33.70
2019-04-26T15:17:46.715Z,34.00
2019-04-26T15:20:16.711Z,34.20
2019-04-26T15:22:48.543Z,34.00
2019-04-26T15:25:13.598Z,34.10
2019-04-26T15:27:42.093Z,34.40
2019-04-26T15:30:11.238Z,34.40
2019-04-26T15:32:39.060Z,34.50
2019-04-26T15:35:07.120Z,35.00
2019-04-26T15:37:37.337Z,35.70
2019-04-26T15:40:39.815Z,35.60
2019-04-26T15:43:29.868Z,35.60
2019-04-26T15:46:17.174Z,35.10
2019-04-26T15:49:05.118Z,34.90
2019-04-26T15:51:33.642Z,35.10
2019-04-26T15:54:01.301Z,35.10
2019-04-26T15:56:29.135Z,35.00
2019-04-26T15:58:56.841Z,35.60
2019-04-26T16:01:25.771Z,35.40
2019-04-26T16:04:05.753Z,35.50
2019-04-26T16:06:32.316Z,36.20
2019-04-26T16:09:04.081Z,35.60
2019-04-26T16:11:31.878Z,35.90
2019-04-26T16:13:59.518Z,36.10
2019-04-26T16:16:29.163Z,36.30
2019-04-26T16:18:57.317Z,36.30
2019-04-26T16:21:25.017Z,36.20
2019-04-26T16:23:55.269Z,36.10
2019-04-26T16:26:22.878Z,37.10
2019-04-26T16:29:18.382Z,36.60
2019-04-26T16:32:02.872Z,36.20
2019-04-26T16:34:32.439Z,36.40
2019-04-26T16:37:00.177Z,36.70
2019-04-26T16:39:32.291Z,36.60
2019-04-26T16:41:59.262Z,35.90
2019-04-26T16:47:01.500Z,35.60
2019-04-26T16:49:25.847Z,36.00
2019-04-26T16:52:01.448Z,36.00
2019-04-26T16:54:26.760Z,35.90
2019-04-26T16:56:52.658Z,37.10
2019-04-26T16:59:23.858Z,37.50
2019-04-26T17:01:49.751Z,38.20
2019-04-26T17:04:20.092Z,39.90
2019-04-26T17:06:46.814Z,41.10
2019-04-26T17:09:17.208Z,42.70
2019-04-26T17:09:50.411Z,35.50
2019-04-26T17:11:44.789Z,43.80
2019-04-26T17:14:13.213Z,45.00
2019-04-26T17:16:44.004Z,45.80
2019-04-26T17:19:11.867Z,46.00
2019-04-26T17:21:46.721Z,47.80
2019-04-26T17:24:25.334Z,48.00
2019-04-26T17:26:56.986Z,49.10
2019-04-26T17:29:24.594Z,49.40
2019-04-26T17:31:52.328Z,51.50
2019-04-26T17:34:22.493Z,52.00
2019-04-26T17:36:50.535Z,52.50
2019-04-26T17:39:18.950Z,49.30
2019-04-26T17:41:50.646Z,46.60
2019-04-26T17:44:20.595Z,46.40
2019-04-26T17:46:48.832Z,44.40
2019-04-26T17:49:16.141Z,50.00
2019-04-26T17:51:44.477Z,50.30
2019-04-26T17:54:40.823Z,46.50
2019-04-26T17:56:43.891Z,45.20
2019-04-26T17:59:30.150Z,44.90
2019-04-26T18:01:47.711Z,48.50
2019-04-26T18:04:12.663Z,48.50
2019-04-26T18:06:40.429Z,46.50
2019-04-26T18:09:08.801Z,46.70
2019-04-26T18:11:36.357Z,45.70
2019-04-26T18:14:06.883Z,46.20
2019-04-26T18:16:35.490Z,49.00
2019-04-26T18:19:17.074Z,50.30
2019-04-26T18:21:56.496Z,51.20
2019-04-26T18:24:20.832Z,51.00
2019-04-26T18:26:53.999Z,49.80
2019-04-26T18:29:17.905Z,51.60
2019-04-26T18:31:45.557Z,52.30
2019-04-26T18:34:13.184Z,54.10
2019-04-26T18:36:40.782Z,52.80
2019-04-26T18:39:09.048Z,55.10
2019-04-26T18:41:36.874Z,54.90
2019-04-26T18:44:04.746Z,55.90
2019-04-26T18:46:47.139Z,56.00
2019-04-26T18:49:18.257Z,56.70
2019-04-26T18:51:48.033Z,57.10
2019-04-26T18:54:23.687Z,57.20
2019-04-26T18:56:55.151Z,57.70
2019-04-26T18:59:23.351Z,57.70
2019-04-26T19:01:53.365Z,57.90
2019-04-26T19:04:21.322Z,58.10
2019-04-26T19:06:49.140Z,58.30
2019-04-26T19:09:18.947Z,58.70
2019-04-26T19:11:48.661Z,59.00
2019-04-26T19:14:51.471Z,59.30
2019-04-26T19:17:37.993Z,59.50
2019-04-26T19:20:25.609Z,59.70
2019-04-26T19:23:00.744Z,60.00
2019-04-26T19:25:29.772Z,59.80
2019-04-26T19:27:58.967Z,60.10
2019-04-26T19:30:27.964Z,60.20
2019-04-26T19:32:55.744Z,60.30
2019-04-26T19:35:23.480Z,60.20
2019-04-26T19:37:51.816Z,60.20
2019-04-26T19:40:19.798Z,60.30
2019-04-26T19:42:47.944Z,60.40
2019-04-26T19:45:25.345Z,60.10
2019-04-26T19:48:02.347Z,60.50
2019-04-26T19:50:55.407Z,60.60
2019-04-26T19:53:32.268Z,60.70
2019-04-26T19:56:24.613Z,60.60
2019-04-26T19:58:57.409Z,60.80
2019-04-26T20:01:24.817Z,61.10
2019-04-26T20:03:52.131Z,61.10
2019-04-26T20:06:20.047Z,61.00
2019-04-26T20:08:49.552Z,61.20
2019-04-26T20:11:18.727Z,61.40
2019-04-26T20:13:50.838Z,61.50
2019-04-26T20:16:17.733Z,61.60
2019-04-26T20:18:46.710Z,62.00
2019-04-26T20:21:15.477Z,62.10
2019-04-26T20:23:47.375Z,62.10
2019-04-26T20:26:13.854Z,62.10
2019-04-26T20:28:42.258Z,62.10
2019-04-26T20:31:27.667Z,62.00
2019-04-26T20:33:55.500Z,62.00
2019-04-26T20:36:23.172Z,61.90
2019-04-26T20:38:52.197Z,61.60
2019-04-26T20:41:19.998Z,61.50
2019-04-26T20:44:02.477Z,61.60
2019-04-26T20:46:17.218Z,62.10
2019-04-26T20:48:46.773Z,62.20
2019-04-26T20:51:14.416Z,62.30
2019-04-26T20:53:43.799Z,62.30
2019-04-26T20:56:16.661Z,62.50
2019-04-26T20:58:46.690Z,62.60
2019-04-26T21:01:14.171Z,62.70
2019-04-26T21:03:42.831Z,62.70
2019-04-26T21:06:11.489Z,62.80
2019-04-26T21:08:42.288Z,62.80
2019-04-26T21:11:08.646Z,63.00
2019-04-26T21:13:36.468Z,63.10
2019-04-26T21:16:10.623Z,63.20
2019-04-26T21:18:40.214Z,63.20
2019-04-26T21:21:05.948Z,63.30
2019-04-26T21:23:39.881Z,63.40
2019-04-26T21:26:19.320Z,63.50
2019-04-26T21:29:15.463Z,63.50
2019-04-26T21:31:51.044Z,63.60
2019-04-26T21:34:24.494Z,63.90
2019-04-26T21:37:17.779Z,63.90
2019-04-26T21:40:03.899Z,64.10
2019-04-26T21:42:33.287Z,64.10
2019-04-26T21:45:03.367Z,64.10
2019-04-26T21:47:31.945Z,64.20
2019-04-26T21:50:00.829Z,64.30
2019-04-26T21:52:29.367Z,64.50
2019-04-26T21:54:57.183Z,64.60
2019-04-26T21:57:27.855Z,65.00
2019-04-26T21:59:54.296Z,64.90
2019-04-26T22:02:25.470Z,64.80
2019-04-26T22:04:53.289Z,64.70
2019-04-26T22:07:24.187Z,64.70
2019-04-26T22:10:05.206Z,65.10
2019-04-26T22:12:32.366Z,65.30
2019-04-26T22:15:14.216Z,65.30
2019-04-26T22:17:43.911Z,65.40
2019-04-26T22:20:48.133Z,65.30
2019-04-26T22:23:23.870Z,65.50
2019-04-26T22:25:54.295Z,65.30
2019-04-26T22:28:23.454Z,65.50
2019-04-26T22:30:51.314Z,66.20
2019-04-26T22:33:19.015Z,66.40
2019-04-26T22:35:50.421Z,67.20
2019-04-26T22:38:17.513Z,67.00
2019-04-26T22:40:48.687Z,66.50
2019-04-26T22:43:53.994Z,66.80
2019-04-26T22:46:46.447Z,66.80
2019-04-26T22:49:07.069Z,67.40
2019-04-26T22:51:37.173Z,67.50
2019-04-26T22:54:06.156Z,67.60
2019-04-26T22:56:37.190Z,68.10
2019-04-26T22:59:07.635Z,68.10
2019-04-26T23:01:35.021Z,68.60
2019-04-26T23:04:03.455Z,69.00
2019-04-26T23:06:31.109Z,70.00
2019-04-26T23:08:58.745Z,70.50
2019-04-26T23:11:27.756Z,70.90
2019-04-26T23:14:11.596Z,71.00
2019-04-26T23:17:34.673Z,72.20
2019-04-26T23:20:55.233Z,72.80
2019-04-26T23:23:23.662Z,73.50
2019-04-26T23:25:51.460Z,73.80
2019-04-26T23:28:21.053Z,73.70
2019-04-26T23:30:50.243Z,73.80
2019-04-26T23:33:18.347Z,74.50
2019-04-26T23:35:47.752Z,75.30
2019-04-26T23:38:15.388Z,74.30
2019-04-26T23:40:43.189Z,74.50
2019-04-26T23:43:10.752Z,74.10
2019-04-26T23:45:43.598Z,73.80
2019-04-26T23:48:11.794Z,74.10
2019-04-26T23:50:37.330Z,74.80
2019-04-26T23:53:05.033Z,75.40
2019-04-26T23:55:33.807Z,76.00
2019-04-26T23:58:04.900Z,76.30
